sensor_id;sensor_type;location;lat;lon;timestamp;P1;durP1;ratioP1;P2;durP2;ratioP2
62911;SDS011;49111;51.028;4.218;2022-10-16T06:12:10;4.97;;;2.20;;
62911;SDS011;49111;51.028;4.218;2022-10-16T06:14:36;6.80;;;3.10;;
62911;SDS011;49111;51.028;4.218;2022-10-16T06:17:01;3.58;;;2.05;;
62911;SDS011;49111;51.028;4.218;2022-10-16T06:19:27;5.80;;;3.67;;
62911;SDS011;49111;51.028;4.218;2022-10-16T06:21:53;7.22;;;4.22;;
62911;SDS011;49111;51.028;4.218;2022-10-16T06:24:18;4.65;;;2.50;;
62911;SDS011;49111;51.028;4.218;2022-10-16T06:26:44;8.77;;;4.57;;
62911;SDS011;49111;51.028;4.218;2022-10-16T06:29:10;4.10;;;1.90;;
62911;SDS011;49111;51.028;4.218;2022-10-16T06:31:36;3.38;;;1.95;;
62911;SDS011;49111;51.028;4.218;2022-10-16T06:34:01;4.55;;;2.42;;
62911;SDS011;49111;51.028;4.218;2022-10-16T06:36:29;7.88;;;4.47;;
62911;SDS011;49111;51.028;4.218;2022-10-16T06:38:55;3.72;;;2.70;;
62911;SDS011;49111;51.028;4.218;2022-10-16T06:41:22;3.78;;;2.08;;
62911;SDS011;49111;51.028;4.218;2022-10-16T06:43:48;3.80;;;2.20;;
62911;SDS011;49111;51.028;4.218;2022-10-16T06:46:15;5.50;;;2.97;;
62911;SDS011;49111;51.028;4.218;2022-10-16T06:48:42;9.65;;;5.68;;
62911;SDS011;49111;51.028;4.218;2022-10-16T06:51:09;8.48;;;5.55;;
62911;SDS011;49111;51.028;4.218;2022-10-16T06:53:36;6.15;;;3.33;;
62911;SDS011;49111;51.028;4.218;2022-10-16T06:56:09;4.28;;;2.42;;
62911;SDS011;49111;51.028;4.218;2022-10-16T06:58:40;10.00;;;5.85;;
62911;SDS011;49111;51.028;4.218;2022-10-16T07:01:06;5.00;;;2.75;;
62911;SDS011;49111;51.028;4.218;2022-10-16T07:03:35;4.00;;;2.70;;
62911;SDS011;49111;51.028;4.218;2022-10-16T07:06:03;8.00;;;2.55;;
62911;SDS011;49111;51.028;4.218;2022-10-16T07:08:31;5.55;;;2.80;;
62911;SDS011;49111;51.028;4.218;2022-10-16T07:11:05;4.40;;;2.47;;
62911;SDS011;49111;51.028;4.218;2022-10-16T07:13:35;6.32;;;3.08;;
62911;SDS011;49111;51.028;4.218;2022-10-16T07:16:05;14.70;;;7.28;;
62911;SDS011;49111;51.028;4.218;2022-10-16T07:18:33;5.82;;;2.30;;
62911;SDS011;49111;51.028;4.218;2022-10-16T07:21:03;5.65;;;2.50;;
62911;SDS011;49111;51.028;4.218;2022-10-16T07:23:30;8.77;;;3.42;;
62911;SDS011;49111;51.028;4.218;2022-10-16T07:25:56;5.95;;;3.10;;
62911;SDS011;49111;51.028;4.218;2022-10-16T07:28:22;7.65;;;3.03;;
62911;SDS011;49111;51.028;4.218;2022-10-16T07:30:49;7.82;;;2.88;;
62911;SDS011;49111;51.028;4.218;2022-10-16T07:33:14;6.10;;;3.63;;
62911;SDS011;49111;51.028;4.218;2022-10-16T07:35:58;8.32;;;4.57;;
62911;SDS011;49111;51.028;4.218;2022-10-16T07:38:24;11.60;;;9.48;;
62911;SDS011;49111;51.028;4.218;2022-10-16T07:40:57;7.18;;;3.42;;
62911;SDS011;49111;51.028;4.218;2022-10-16T07:43:30;13.93;;;10.27;;
62911;SDS011;49111;51.028;4.218;2022-10-16T07:45:56;6.30;;;2.88;;
62911;SDS011;49111;51.028;4.218;2022-10-16T07:48:22;8.48;;;3.35;;
62911;SDS011;49111;51.028;4.218;2022-10-16T07:50:51;5.22;;;2.80;;
62911;SDS011;49111;51.028;4.218;2022-10-16T07:53:17;5.05;;;3.25;;
62911;SDS011;49111;51.028;4.218;2022-10-16T07:55:43;5.40;;;1.92;;
62911;SDS011;49111;51.028;4.218;2022-10-16T07:58:11;4.97;;;2.60;;
62911;SDS011;49111;51.028;4.218;2022-10-16T08:00:38;5.75;;;2.25;;
62911;SDS011;49111;51.028;4.218;2022-10-16T08:03:04;4.75;;;2.38;;
62911;SDS011;49111;51.028;4.218;2022-10-16T08:05:30;3.03;;;2.00;;
62911;SDS011;49111;51.028;4.218;2022-10-16T08:07:58;5.32;;;3.38;;
62911;SDS011;49111;51.028;4.218;2022-10-16T08:10:26;5.70;;;1.75;;
62911;SDS011;49111;51.028;4.218;2022-10-16T08:12:52;6.70;;;2.38;;
62911;SDS011;49111;51.028;4.218;2022-10-16T08:15:18;6.07;;;3.95;;
62911;SDS011;49111;51.028;4.218;2022-10-16T08:17:45;5.90;;;1.85;;
62911;SDS011;49111;51.028;4.218;2022-10-16T08:20:20;5.43;;;2.15;;
62911;SDS011;49111;51.028;4.218;2022-10-16T08:22:45;4.90;;;2.65;;
62911;SDS011;49111;51.028;4.218;2022-10-16T08:25:11;8.00;;;3.28;;
62911;SDS011;49111;51.028;4.218;2022-10-16T08:27:37;4.05;;;1.80;;
62911;SDS011;49111;51.028;4.218;2022-10-16T08:30:03;5.28;;;2.53;;
62911;SDS011;49111;51.028;4.218;2022-10-16T08:32:29;3.05;;;2.17;;
62911;SDS011;49111;51.028;4.218;2022-10-16T08:34:54;4.68;;;2.10;;
62911;SDS011;49111;51.028;4.218;2022-10-16T08:37:20;10.23;;;5.75;;
62911;SDS011;49111;51.028;4.218;2022-10-16T08:39:46;5.75;;;2.50;;
62911;SDS011;49111;51.028;4.218;2022-10-16T08:42:29;3.70;;;1.90;;
62911;SDS011;49111;51.028;4.218;2022-10-16T08:50:43;6.90;;;2.72;;
62911;SDS011;49111;51.028;4.218;2022-10-16T08:53:14;4.28;;;1.55;;
62911;SDS011;49111;51.028;4.218;2022-10-16T08:56:04;3.67;;;1.92;;
62911;SDS011;49111;51.028;4.218;2022-10-16T08:58:30;6.22;;;1.90;;
62911;SDS011;49111;51.028;4.218;2022-10-16T09:00:58;4.28;;;1.60;;
62911;SDS011;49111;51.028;4.218;2022-10-16T09:06:50;7.45;;;1.70;;
62911;SDS011;49111;51.028;4.218;2022-10-16T09:15:24;3.78;;;1.63;;
62911;SDS011;49111;51.028;4.218;2022-10-16T09:25:31;3.97;;;1.45;;
62911;SDS011;49111;51.028;4.218;2022-10-16T09:28:02;5.30;;;2.05;;
62911;SDS011;49111;51.028;4.218;2022-10-16T09:30:28;6.35;;;1.42;;
62911;SDS011;49111;51.028;4.218;2022-10-16T09:33:04;6.20;;;2.08;;
62911;SDS011;49111;51.028;4.218;2022-10-16T09:35:33;7.45;;;2.58;;
62911;SDS011;49111;51.028;4.218;2022-10-16T09:41:16;6.80;;;1.50;;
62911;SDS011;49111;51.028;4.218;2022-10-16T09:43:56;3.70;;;1.27;;
62911;SDS011;49111;51.028;4.218;2022-10-16T09:46:25;5.68;;;1.52;;
62911;SDS011;49111;51.028;4.218;2022-10-16T09:48:53;4.63;;;1.40;;
62911;SDS011;49111;51.028;4.218;2022-10-16T09:53:53;5.47;;;1.30;;
62911;SDS011;49111;51.028;4.218;2022-10-16T09:56:25;4.20;;;1.40;;
62911;SDS011;49111;51.028;4.218;2022-10-16T09:59:03;3.60;;;1.48;;
62911;SDS011;49111;51.028;4.218;2022-10-16T10:01:39;6.60;;;1.45;;
62911;SDS011;49111;51.028;4.218;2022-10-16T10:04:08;6.57;;;1.38;;
62911;SDS011;49111;51.028;4.218;2022-10-16T10:06:48;3.33;;;1.60;;
62911;SDS011;49111;51.028;4.218;2022-10-16T10:09:26;5.70;;;1.95;;
62911;SDS011;49111;51.028;4.218;2022-10-16T10:11:57;3.40;;;1.40;;
62911;SDS011;49111;51.028;4.218;2022-10-16T10:14:30;4.43;;;1.33;;
62911;SDS011;49111;51.028;4.218;2022-10-16T10:22:26;3.95;;;1.55;;
62911;SDS011;49111;51.028;4.218;2022-10-16T10:27:43;5.25;;;1.95;;
62911;SDS011;49111;51.028;4.218;2022-10-16T10:49:43;5.95;;;1.90;;
62911;SDS011;49111;51.028;4.218;2022-10-16T11:01:22;4.13;;;1.15;;
62911;SDS011;49111;51.028;4.218;2022-10-16T11:06:04;5.72;;;1.70;;
62911;SDS011;49111;51.028;4.218;2022-10-16T11:09:02;3.70;;;1.33;;
62911;SDS011;49111;51.028;4.218;2022-10-16T11:11:41;7.90;;;1.77;;
62911;SDS011;49111;51.028;4.218;2022-10-16T11:14:18;7.07;;;1.85;;
62911;SDS011;49111;51.028;4.218;2022-10-16T11:19:38;2.95;;;1.45;;
62911;SDS011;49111;51.028;4.218;2022-10-16T11:22:13;4.60;;;1.17;;
62911;SDS011;49111;51.028;4.218;2022-10-16T11:24:53;5.63;;;1.50;;
62911;SDS011;49111;51.028;4.218;2022-10-16T11:27:34;5.65;;;1.80;;
62911;SDS011;49111;51.028;4.218;2022-10-16T11:30:05;6.65;;;1.60;;
62911;SDS011;49111;51.028;4.218;2022-10-16T11:35:39;6.25;;;1.65;;
62911;SDS011;49111;51.028;4.218;2022-10-16T11:41:09;5.78;;;1.70;;
62911;SDS011;49111;51.028;4.218;2022-10-16T11:46:38;4.47;;;1.38;;
62911;SDS011;49111;51.028;4.218;2022-10-16T11:49:09;6.43;;;1.30;;
62911;SDS011;49111;51.028;4.218;2022-10-16T11:51:48;4.15;;;1.13;;
62911;SDS011;49111;51.028;4.218;2022-10-16T11:57:24;5.00;;;1.48;;
62911;SDS011;49111;51.028;4.218;2022-10-16T12:00:02;3.58;;;1.33;;
62911;SDS011;49111;51.028;4.218;2022-10-16T12:08:15;5.25;;;2.25;;
62911;SDS011;49111;51.028;4.218;2022-10-16T12:10:42;4.10;;;1.40;;
62911;SDS011;49111;51.028;4.218;2022-10-16T12:18:39;2.47;;;0.80;;
62911;SDS011;49111;51.028;4.218;2022-10-16T12:21:07;4.43;;;1.63;;
62911;SDS011;49111;51.028;4.218;2022-10-16T12:23:37;4.72;;;0.90;;
62911;SDS011;49111;51.028;4.218;2022-10-16T12:26:11;4.57;;;1.20;;
62911;SDS011;49111;51.028;4.218;2022-10-16T12:28:37;2.50;;;1.15;;
62911;SDS011;49111;51.028;4.218;2022-10-16T12:31:05;4.03;;;0.98;;
62911;SDS011;49111;51.028;4.218;2022-10-16T12:33:37;3.47;;;0.90;;
62911;SDS011;49111;51.028;4.218;2022-10-16T12:36:16;3.85;;;1.10;;
62911;SDS011;49111;51.028;4.218;2022-10-16T12:38:56;2.88;;;1.00;;
62911;SDS011;49111;51.028;4.218;2022-10-16T12:43:51;1.67;;;0.82;;
62911;SDS011;49111;51.028;4.218;2022-10-16T12:48:43;3.28;;;1.30;;
62911;SDS011;49111;51.028;4.218;2022-10-16T12:51:11;5.18;;;1.23;;
62911;SDS011;49111;51.028;4.218;2022-10-16T12:53:57;2.28;;;1.00;;
62911;SDS011;49111;51.028;4.218;2022-10-16T12:56:34;2.88;;;1.13;;
62911;SDS011;49111;51.028;4.218;2022-10-16T12:59:15;2.38;;;0.93;;
62911;SDS011;49111;51.028;4.218;2022-10-16T13:32:35;4.35;;;1.13;;
62911;SDS011;49111;51.028;4.218;2022-10-16T13:35:01;1.42;;;0.88;;
62911;SDS011;49111;51.028;4.218;2022-10-16T13:37:29;2.25;;;0.55;;
62911;SDS011;49111;51.028;4.218;2022-10-16T13:42:47;4.32;;;0.82;;
62911;SDS011;49111;51.028;4.218;2022-10-16T13:45:18;1.92;;;0.90;;
62911;SDS011;49111;51.028;4.218;2022-10-16T13:47:45;4.10;;;1.10;;
62911;SDS011;49111;51.028;4.218;2022-10-16T13:50:12;2.10;;;0.85;;
62911;SDS011;49111;51.028;4.218;2022-10-16T13:52:40;2.70;;;0.95;;
62911;SDS011;49111;51.028;4.218;2022-10-16T13:55:16;3.72;;;1.02;;
62911;SDS011;49111;51.028;4.218;2022-10-16T13:57:44;1.30;;;0.77;;
62911;SDS011;49111;51.028;4.218;2022-10-16T14:02:50;3.95;;;1.08;;
62911;SDS011;49111;51.028;4.218;2022-10-16T14:05:20;4.63;;;1.23;;
62911;SDS011;49111;51.028;4.218;2022-10-16T14:07:47;3.47;;;0.90;;
62911;SDS011;49111;51.028;4.218;2022-10-16T14:10:31;5.70;;;1.17;;
62911;SDS011;49111;51.028;4.218;2022-10-16T14:12:59;4.32;;;0.80;;
62911;SDS011;49111;51.028;4.218;2022-10-16T14:15:28;2.15;;;0.80;;
62911;SDS011;49111;51.028;4.218;2022-10-16T14:17:56;5.45;;;1.02;;
62911;SDS011;49111;51.028;4.218;2022-10-16T14:20:27;4.00;;;1.17;;
62911;SDS011;49111;51.028;4.218;2022-10-16T14:23:03;2.75;;;0.77;;
62911;SDS011;49111;51.028;4.218;2022-10-16T14:25:43;3.08;;;0.88;;
62911;SDS011;49111;51.028;4.218;2022-10-16T14:28:22;1.67;;;0.77;;
62911;SDS011;49111;51.028;4.218;2022-10-16T14:30:53;1.67;;;1.00;;
62911;SDS011;49111;51.028;4.218;2022-10-16T14:38:36;3.28;;;1.25;;
62911;SDS011;49111;51.028;4.218;2022-10-16T14:41:04;2.97;;;1.33;;
62911;SDS011;49111;51.028;4.218;2022-10-16T14:43:34;2.60;;;1.30;;
62911;SDS011;49111;51.028;4.218;2022-10-16T14:46:03;2.25;;;1.20;;
62911;SDS011;49111;51.028;4.218;2022-10-16T14:48:42;4.50;;;1.05;;
62911;SDS011;49111;51.028;4.218;2022-10-16T14:51:14;1.70;;;1.08;;
62911;SDS011;49111;51.028;4.218;2022-10-16T14:53:41;3.63;;;1.23;;
62911;SDS011;49111;51.028;4.218;2022-10-16T14:56:15;2.22;;;1.10;;
62911;SDS011;49111;51.028;4.218;2022-10-16T14:58:46;3.65;;;1.58;;
62911;SDS011;49111;51.028;4.218;2022-10-16T15:01:12;2.83;;;1.55;;
62911;SDS011;49111;51.028;4.218;2022-10-16T15:03:38;2.53;;;1.55;;
62911;SDS011;49111;51.028;4.218;2022-10-16T15:06:08;2.10;;;1.38;;
62911;SDS011;49111;51.028;4.218;2022-10-16T15:08:39;5.85;;;1.25;;
62911;SDS011;49111;51.028;4.218;2022-10-16T15:11:05;3.22;;;2.03;;
62911;SDS011;49111;51.028;4.218;2022-10-16T15:13:37;3.92;;;1.52;;
62911;SDS011;49111;51.028;4.218;2022-10-16T15:16:03;6.40;;;1.60;;
62911;SDS011;49111;51.028;4.218;2022-10-16T15:18:29;4.03;;;1.30;;
62911;SDS011;49111;51.028;4.218;2022-10-16T15:20:55;3.30;;;1.48;;
62911;SDS011;49111;51.028;4.218;2022-10-16T15:23:21;2.08;;;0.90;;
62911;SDS011;49111;51.028;4.218;2022-10-16T15:25:48;2.70;;;1.20;;
62911;SDS011;49111;51.028;4.218;2022-10-16T15:28:16;2.15;;;1.00;;
62911;SDS011;49111;51.028;4.218;2022-10-16T15:30:45;4.22;;;1.40;;
62911;SDS011;49111;51.028;4.218;2022-10-16T15:33:12;1.98;;;0.82;;
62911;SDS011;49111;51.028;4.218;2022-10-16T15:35:40;2.30;;;1.58;;
62911;SDS011;49111;51.028;4.218;2022-10-16T15:38:06;5.35;;;1.60;;
62911;SDS011;49111;51.028;4.218;2022-10-16T15:40:35;4.35;;;2.20;;
62911;SDS011;49111;51.028;4.218;2022-10-16T15:43:02;2.00;;;1.67;;
62911;SDS011;49111;51.028;4.218;2022-10-16T15:45:27;3.45;;;1.70;;
62911;SDS011;49111;51.028;4.218;2022-10-16T15:47:53;3.28;;;1.73;;
62911;SDS011;49111;51.028;4.218;2022-10-16T15:50:19;2.42;;;1.50;;
62911;SDS011;49111;51.028;4.218;2022-10-16T15:52:45;3.13;;;1.58;;
62911;SDS011;49111;51.028;4.218;2022-10-16T15:55:11;2.22;;;1.20;;
62911;SDS011;49111;51.028;4.218;2022-10-16T15:57:38;2.78;;;1.42;;
62911;SDS011;49111;51.028;4.218;2022-10-16T16:00:07;4.55;;;2.22;;
62911;SDS011;49111;51.028;4.218;2022-10-16T16:02:37;2.55;;;1.50;;
62911;SDS011;49111;51.028;4.218;2022-10-16T16:05:03;3.90;;;1.70;;
62911;SDS011;49111;51.028;4.218;2022-10-16T16:07:32;3.85;;;1.77;;
62911;SDS011;49111;51.028;4.218;2022-10-16T16:09:59;5.35;;;2.38;;
62911;SDS011;49111;51.028;4.218;2022-10-16T16:12:25;6.45;;;4.20;;
62911;SDS011;49111;51.028;4.218;2022-10-16T16:14:52;10.30;;;6.88;;
62911;SDS011;49111;51.028;4.218;2022-10-16T16:17:17;8.80;;;5.30;;
62911;SDS011;49111;51.028;4.218;2022-10-16T16:19:43;7.90;;;4.05;;
62911;SDS011;49111;51.028;4.218;2022-10-16T16:22:10;6.63;;;4.40;;
62911;SDS011;49111;51.028;4.218;2022-10-16T16:24:36;7.88;;;4.63;;
62911;SDS011;49111;51.028;4.218;2022-10-16T16:27:02;11.85;;;5.80;;
62911;SDS011;49111;51.028;4.218;2022-10-16T16:29:27;9.38;;;5.85;;
62911;SDS011;49111;51.028;4.218;2022-10-16T16:31:53;8.55;;;5.55;;
62911;SDS011;49111;51.028;4.218;2022-10-16T16:34:25;8.57;;;4.88;;
62911;SDS011;49111;51.028;4.218;2022-10-16T16:36:52;9.15;;;4.28;;
62911;SDS011;49111;51.028;4.218;2022-10-16T16:39:19;7.78;;;4.40;;
62911;SDS011;49111;51.028;4.218;2022-10-16T16:41:45;8.68;;;4.45;;
62911;SDS011;49111;51.028;4.218;2022-10-16T16:44:12;8.52;;;3.92;;
62911;SDS011;49111;51.028;4.218;2022-10-16T16:46:38;5.10;;;3.50;;
62911;SDS011;49111;51.028;4.218;2022-10-16T16:49:05;5.65;;;3.58;;
62911;SDS011;49111;51.028;4.218;2022-10-16T16:51:31;7.80;;;3.97;;
62911;SDS011;49111;51.028;4.218;2022-10-16T16:53:58;6.35;;;3.05;;
62911;SDS011;49111;51.028;4.218;2022-10-16T16:56:24;4.18;;;2.65;;
62911;SDS011;49111;51.028;4.218;2022-10-16T16:58:52;4.82;;;3.28;;
62911;SDS011;49111;51.028;4.218;2022-10-16T17:01:20;5.55;;;2.63;;
62911;SDS011;49111;51.028;4.218;2022-10-16T17:03:48;5.10;;;2.85;;
62911;SDS011;49111;51.028;4.218;2022-10-16T17:06:16;7.05;;;2.53;;
62911;SDS011;49111;51.028;4.218;2022-10-16T17:08:43;5.32;;;2.55;;
62911;SDS011;49111;51.028;4.218;2022-10-16T17:11:13;6.85;;;2.70;;
62911;SDS011;49111;51.028;4.218;2022-10-16T17:13:41;4.78;;;2.90;;
62911;SDS011;49111;51.028;4.218;2022-10-16T17:16:07;10.27;;;3.78;;
62911;SDS011;49111;51.028;4.218;2022-10-16T17:18:33;8.55;;;3.38;;
62911;SDS011;49111;51.028;4.218;2022-10-16T17:21:00;7.30;;;2.85;;
62911;SDS011;49111;51.028;4.218;2022-10-16T17:23:30;9.48;;;4.40;;
62911;SDS011;49111;51.028;4.218;2022-10-16T17:26:02;9.43;;;4.45;;
62911;SDS011;49111;51.028;4.218;2022-10-16T17:28:31;11.23;;;4.70;;
62911;SDS011;49111;51.028;4.218;2022-10-16T17:31:06;28.02;;;13.98;;
62911;SDS011;49111;51.028;4.218;2022-10-16T17:33:33;29.17;;;14.77;;
62911;SDS011;49111;51.028;4.218;2022-10-16T17:35:58;25.67;;;15.15;;
62911;SDS011;49111;51.028;4.218;2022-10-16T17:38:24;29.20;;;21.38;;
62911;SDS011;49111;51.028;4.218;2022-10-16T17:40:50;33.10;;;21.10;;
62911;SDS011;49111;51.028;4.218;2022-10-16T17:43:16;57.03;;;36.15;;
62911;SDS011;49111;51.028;4.218;2022-10-16T17:45:42;58.00;;;32.78;;
62911;SDS011;49111;51.028;4.218;2022-10-16T17:48:08;41.40;;;25.33;;
62911;SDS011;49111;51.028;4.218;2022-10-16T17:50:33;40.95;;;23.98;;
62911;SDS011;49111;51.028;4.218;2022-10-16T17:53:03;20.40;;;15.32;;
62911;SDS011;49111;51.028;4.218;2022-10-16T17:55:29;21.25;;;13.43;;
62911;SDS011;49111;51.028;4.218;2022-10-16T17:57:55;17.25;;;10.85;;
62911;SDS011;49111;51.028;4.218;2022-10-16T18:00:21;18.25;;;12.30;;
62911;SDS011;49111;51.028;4.218;2022-10-16T18:02:48;19.15;;;12.23;;
62911;SDS011;49111;51.028;4.218;2022-10-16T18:05:14;15.90;;;10.02;;
